Time;durP1;ratioP1;P1;durP2;ratioP2;P2;SDS_P1;SDS_P2;PMS_P1;PMS_P2;Temp;Humidity;BMP_temperature;BMP_pressure;BME280_temperature;BME280_humidity;BME280_pressure;Samples;Min_cycle;Max_cycle;Signal;HPM_P1;HPM_P2
2021/04/02 00:00:19;;;;;;;3.15;2.53;;;15.10;88.90;;;;;;5008724;28;20220;-69
2021/04/02 00:02:46;;;;;;;2.30;2.10;;;15.00;88.80;;;;;;5007188;28;20208;-69
2021/04/02 00:05:14;;;;;;;2.97;2.60;;;15.00;89.30;;;;;;5009015;28;20724;-68
2021/04/02 00:07:41;;;;;;;2.78;2.22;;;15.00;89.50;;;;;;5006200;28;20651;-68
2021/04/02 00:10:11;;;;;;;2.75;2.40;;;15.00;89.60;;;;;;5009541;28;20264;-69
2021/04/02 00:12:38;;;;;;;2.53;2.28;;;15.00;89.50;;;;;;5010421;28;20207;-68
2021/04/02 00:15:09;;;;;;;2.67;2.33;;;14.90;89.80;;;;;;5006003;28;20726;-68
2021/04/02 00:17:37;;;;;;;2.88;2.33;;;14.80;90.00;;;;;;5006071;28;20582;-69
2021/04/02 00:20:07;;;;;;;3.55;2.50;;;14.80;90.40;;;;;;5008875;28;20247;-68
2021/04/02 00:22:34;;;;;;;3.25;2.13;;;14.80;89.90;;;;;;5007032;28;20275;-69
2021/04/02 00:25:00;;;;;;;2.40;2.15;;;14.70;89.80;;;;;;5006000;28;20238;-69
2021/04/02 00:27:27;;;;;;;2.65;2.42;;;14.70;89.90;;;;;;5004867;28;20373;-68
2021/04/02 00:29:54;;;;;;;2.25;2.05;;;14.70;90.00;;;;;;5009929;28;20212;-68
2021/04/02 00:32:20;;;;;;;2.47;2.28;;;14.70;90.00;;;;;;5012269;28;20205;-69
2021/04/02 00:34:48;;;;;;;3.53;2.00;;;14.70;90.00;;;;;;5022493;28;20567;-69
2021/04/02 00:37:14;;;;;;;2.25;2.05;;;14.70;90.10;;;;;;5002364;28;20746;-69
2021/04/02 00:39:41;;;;;;;2.60;1.90;;;14.60;90.00;;;;;;5008040;28;20196;-69
2021/04/02 00:42:08;;;;;;;2.33;1.80;;;14.60;90.10;;;;;;5010621;28;20236;-68
2021/04/02 00:44:35;;;;;;;2.42;2.05;;;14.60;90.30;;;;;;5009297;28;20196;-68
2021/04/02 00:47:01;;;;;;;2.42;2.10;;;14.50;90.50;;;;;;5006522;28;20223;-68
2021/04/02 00:49:28;;;;;;;3.53;2.35;;;14.30;90.80;;;;;;5006314;28;20231;-69
2021/04/02 00:51:55;;;;;;;4.65;2.40;;;14.20;91.00;;;;;;5003972;28;20262;-68
2021/04/02 00:54:22;;;;;;;2.72;2.13;;;14.10;91.10;;;;;;5002822;28;20204;-69
2021/04/02 00:56:50;;;;;;;2.13;1.98;;;14.10;91.10;;;;;;5006916;28;20768;-68
2021/04/02 00:59:16;;;;;;;3.85;2.30;;;14.10;91.20;;;;;;5003049;28;20189;-69
2021/04/02 01:01:43;;;;;;;2.72;2.33;;;14.10;91.10;;;;;;5004777;28;20232;-68
2021/04/02 01:04:10;;;;;;;2.35;1.90;;;14.10;91.20;;;;;;5008963;28;20196;-68
2021/04/02 01:06:36;;;;;;;1.92;1.83;;;14.10;91.00;;;;;;5004250;28;20229;-69
2021/04/02 01:09:04;;;;;;;1.90;1.80;;;14.10;91.00;;;;;;5005597;28;20212;-68
2021/04/02 01:11:31;;;;;;;1.90;1.80;;;14.20;91.00;;;;;;5006199;28;20224;-68
2021/04/02 01:13:59;;;;;;;2.20;2.10;;;14.20;91.00;;;;;;5006958;28;20197;-68
2021/04/02 01:16:27;;;;;;;2.40;2.20;;;14.30;91.00;;;;;;5004947;28;20259;-68
2021/04/02 01:18:58;;;;;;;1.67;1.58;;;14.30;91.00;;;;;;5018680;28;20192;-68
2021/04/02 01:21:29;;;;;;;2.45;1.90;;;14.30;91.00;;;;;;5008328;28;20685;-69
2021/04/02 01:24:07;;;;;;;2.33;2.13;;;14.30;90.70;;;;;;5003865;28;20196;-68
2021/04/02 01:26:49;;;;;;;3.17;1.80;;;14.30;90.70;;;;;;5008657;28;20220;-69
2021/04/02 01:29:21;;;;;;;2.25;1.88;;;14.30;90.60;;;;;;5005785;28;20224;-69
2021/04/02 01:31:51;;;;;;;1.88;1.77;;;14.30;90.60;;;;;;5005478;28;20216;-69
2021/04/02 01:34:21;;;;;;;3.15;2.00;;;14.30;90.60;;;;;;5009451;28;20204;-69
2021/04/02 01:36:51;;;;;;;2.47;1.75;;;14.40;90.60;;;;;;5011393;28;20694;-68
2021/04/02 01:39:19;;;;;;;2.67;2.47;;;14.40;90.60;;;;;;5008526;28;20464;-68
2021/04/02 01:41:49;;;;;;;1.83;1.73;;;14.40;90.80;;;;;;5007354;28;20239;-68
2021/04/02 01:44:18;;;;;;;2.05;1.77;;;14.40;90.90;;;;;;5012613;28;20219;-69
2021/04/02 01:46:45;;;;;;;2.13;1.73;;;14.30;91.00;;;;;;5001567;28;20224;-68
2021/04/02 01:49:13;;;;;;;2.13;1.88;;;14.30;91.10;;;;;;5003685;28;20192;-69
2021/04/02 01:51:41;;;;;;;1.85;1.75;;;14.30;91.10;;;;;;5006576;28;20232;-68
2021/04/02 01:54:08;;;;;;;2.13;1.88;;;14.30;91.20;;;;;;5007644;28;20243;-69
2021/04/02 01:56:36;;;;;;;3.25;2.35;;;14.30;91.20;;;;;;5008148;28;20232;-68
2021/04/02 01:59:03;;;;;;;2.33;2.13;;;14.20;91.40;;;;;;5004319;28;20647;-68
2021/04/02 02:01:37;;;;;;;1.85;1.75;;;14.30;91.10;;;;;;5000919;28;20244;-68
2021/04/02 02:04:05;;;;;;;2.08;1.63;;;14.30;91.10;;;;;;5020181;28;20262;-68
2021/04/02 02:06:33;;;;;;;2.15;1.80;;;14.30;91.10;;;;;;5006446;28;20224;-69
2021/04/02 02:09:05;;;;;;;3.78;2.13;;;14.30;91.10;;;;;;5004902;28;20204;-69
2021/04/02 02:11:33;;;;;;;1.83;1.73;;;14.20;91.30;;;;;;5001105;28;20217;-69
2021/04/02 02:14:06;;;;;;;1.90;1.48;;;14.20;91.40;;;;;;5009598;28;20706;-69
2021/04/02 02:16:34;;;;;;;2.00;1.90;;;14.10;91.50;;;;;;5004222;28;20231;-68
2021/04/02 02:19:02;;;;;;;2.60;1.63;;;14.10;91.50;;;;;;5000781;28;20196;-69
2021/04/02 02:21:29;;;;;;;2.05;1.83;;;14.00;91.50;;;;;;5005463;28;20279;-69
2021/04/02 02:23:57;;;;;;;1.67;1.58;;;14.00;91.50;;;;;;5002878;28;20192;-69
2021/04/02 02:26:24;;;;;;;1.83;1.67;;;14.00;91.50;;;;;;5004813;28;20277;-69
2021/04/02 02:28:50;;;;;;;4.10;2.08;;;13.90;91.60;;;;;;5004846;28;20196;-69
2021/04/02 02:31:17;;;;;;;1.80;1.70;;;13.90;91.70;;;;;;5003309;28;20217;-69
2021/04/02 02:33:45;;;;;;;2.10;1.90;;;13.90;91.70;;;;;;5004440;28;20208;-69
2021/04/02 02:36:11;;;;;;;2.53;1.98;;;13.90;91.80;;;;;;5003196;28;20233;-71
2021/04/02 02:38:38;;;;;;;2.22;1.85;;;13.90;91.90;;;;;;5007734;28;20204;-69
2021/04/02 02:41:05;;;;;;;2.67;1.60;;;13.80;92.00;;;;;;5008470;28;20227;-69
2021/04/02 02:43:32;;;;;;;2.25;1.90;;;13.70;92.20;;;;;;5005036;28;20832;-68
2021/04/02 02:45:58;;;;;;;2.08;1.70;;;13.70;92.20;;;;;;5005057;28;20223;-69
2021/04/02 02:48:25;;;;;;;2.30;2.10;;;13.70;92.30;;;;;;5013369;28;20192;-68
2021/04/02 02:50:56;;;;;;;2.88;1.70;;;13.60;92.30;;;;;;5019568;28;20220;-70
2021/04/02 02:53:26;;;;;;;1.80;1.70;;;13.60;92.30;;;;;;5005730;28;20196;-69
2021/04/02 02:55:54;;;;;;;2.00;1.88;;;13.60;92.30;;;;;;5004464;28;20224;-69
2021/04/02 02:58:24;;;;;;;3.60;1.73;;;13.60;92.40;;;;;;5003407;28;20211;-69
2021/04/02 03:00:51;;;;;;;2.25;2.05;;;13.50;92.60;;;;;;5008764;28;20241;-69
2021/04/02 03:03:21;;;;;;;2.83;2.00;;;13.50;92.90;;;;;;5002788;28;20196;-68
2021/04/02 03:05:50;;;;;;;2.88;1.90;;;13.40;92.90;;;;;;5003876;28;20634;-72
2021/04/02 03:08:22;;;;;;;2.20;2.08;;;13.40;92.80;;;;;;5003596;28;20293;-70
2021/04/02 03:10:49;;;;;;;2.33;2.15;;;13.40;92.90;;;;;;5002213;28;20228;-69
2021/04/02 03:13:17;;;;;;;2.15;1.67;;;13.40;92.90;;;;;;5004135;28;20569;-69
2021/04/02 03:15:45;;;;;;;1.80;1.70;;;13.40;92.90;;;;;;4999491;28;20781;-67
2021/04/02 03:18:16;;;;;;;1.60;1.50;;;13.40;92.80;;;;;;5015115;28;20223;-68
2021/04/02 03:20:43;;;;;;;1.80;1.70;;;13.40;92.90;;;;;;5014797;28;20223;-69
2021/04/02 03:23:12;;;;;;;1.90;1.80;;;13.40;92.90;;;;;;5019463;28;20215;-68
2021/04/02 03:25:41;;;;;;;2.40;2.17;;;13.40;92.90;;;;;;5019687;28;20232;-68
2021/04/02 03:28:09;;;;;;;1.90;1.80;;;13.40;93.00;;;;;;5010743;28;20208;-69
2021/04/02 03:30:37;;;;;;;2.17;1.92;;;13.40;93.10;;;;;;5013483;28;20579;-68
2021/04/02 03:33:09;;;;;;;2.63;2.10;;;13.40;93.20;;;;;;5019336;28;20258;-68
2021/04/02 03:35:37;;;;;;;2.30;2.10;;;13.40;93.30;;;;;;5025494;28;20829;-68
2021/04/02 03:38:06;;;;;;;2.67;1.95;;;13.40;93.10;;;;;;5006436;28;20200;-68
2021/04/02 03:40:34;;;;;;;1.95;1.75;;;13.40;93.30;;;;;;5003207;28;20192;-69
2021/04/02 03:43:05;;;;;;;1.90;1.80;;;13.40;93.40;;;;;;5004897;28;20346;-69
2021/04/02 03:45:32;;;;;;;2.50;2.30;;;13.30;93.40;;;;;;5007579;28;20618;-70
2021/04/02 03:48:03;;;;;;;2.13;1.95;;;13.30;93.60;;;;;;5010271;28;20246;-68
2021/04/02 03:50:34;;;;;;;2.90;2.25;;;13.20;93.80;;;;;;5005332;28;20844;-69
2021/04/02 03:53:06;;;;;;;2.00;1.90;;;13.10;93.90;;;;;;5011282;28;20224;-70
2021/04/02 03:55:33;;;;;;;2.40;2.20;;;13.10;94.00;;;;;;5004590;28;20995;-69
2021/04/02 03:58:02;;;;;;;2.60;1.92;;;13.00;94.60;;;;;;5008112;28;20212;-69
2021/04/02 04:00:33;;;;;;;2.83;2.45;;;13.00;94.40;;;;;;5011295;28;20220;-69
2021/04/02 04:03:01;;;;;;;2.25;2.08;;;12.90;94.60;;;;;;5011917;28;20249;-68
2021/04/02 04:05:30;;;;;;;1.95;1.75;;;12.80;94.70;;;;;;5006574;28;20722;-67
2021/04/02 04:07:58;;;;;;;3.40;2.10;;;12.80;94.60;;;;;;5010578;28;20701;-68
2021/04/02 04:10:25;;;;;;;2.47;1.83;;;12.80;94.60;;;;;;5002424;28;20232;-68
2021/04/02 04:12:56;;;;;;;2.20;2.00;;;12.90;94.80;;;;;;5007956;28;20215;-68
2021/04/02 04:15:26;;;;;;;2.33;2.17;;;12.90;94.90;;;;;;5013344;28;20362;-68
2021/04/02 04:17:54;;;;;;;1.98;1.88;;;12.80;94.80;;;;;;5006769;28;20211;-68
2021/04/02 04:20:21;;;;;;;1.90;1.80;;;12.80;94.70;;;;;;5029972;28;20196;-68
2021/04/02 04:22:49;;;;;;;2.10;1.90;;;12.90;94.80;;;;;;5009678;28;20224;-68
2021/04/02 04:25:21;;;;;;;2.10;1.90;;;12.80;94.70;;;;;;5007781;28;20255;-68
2021/04/02 04:27:48;;;;;;;1.83;1.70;;;12.80;94.80;;;;;;5013149;28;20242;-72
2021/04/02 04:30:18;;;;;;;2.40;2.20;;;12.80;94.80;;;;;;5011089;28;20256;-68
2021/04/02 04:32:45;;;;;;;3.30;1.92;;;12.80;95.00;;;;;;5011809;28;20303;-69
2021/04/02 04:35:15;;;;;;;1.80;1.70;;;12.80;95.00;;;;;;5008204;28;20258;-69
2021/04/02 04:37:44;;;;;;;2.30;1.77;;;12.80;95.00;;;;;;5001773;28;20216;-68
2021/04/02 04:40:13;;;;;;;1.70;1.60;;;12.80;95.00;;;;;;5003912;28;20197;-68
2021/04/02 04:42:43;;;;;;;2.80;1.80;;;12.80;95.00;;;;;;5009534;28;20221;-69
2021/04/02 04:45:11;;;;;;;2.08;1.88;;;12.80;95.00;;;;;;5008022;28;20216;-69
2021/04/02 04:47:38;;;;;;;1.83;1.73;;;12.80;95.10;;;;;;5007710;28;20228;-68
2021/04/02 04:50:08;;;;;;;1.83;1.73;;;12.80;95.20;;;;;;5009131;28;20223;-69
2021/04/02 04:52:40;;;;;;;2.08;1.85;;;12.80;95.20;;;;;;5003221;28;20711;-69
2021/04/02 04:55:10;;;;;;;2.13;1.92;;;12.80;95.30;;;;;;5003358;28;20247;-69
2021/04/02 04:57:39;;;;;;;2.58;2.00;;;12.70;95.80;;;;;;5003509;28;20216;-69
2021/04/02 05:00:08;;;;;;;2.53;2.30;;;12.70;95.60;;;;;;5003621;28;20200;-69
2021/04/02 05:02:35;;;;;;;3.22;1.80;;;12.60;95.70;;;;;;5004575;28;20754;-69
2021/04/02 05:05:03;;;;;;;2.20;2.08;;;12.60;96.00;;;;;;5010205;28;20219;-69
2021/04/02 05:07:33;;;;;;;5.07;1.73;;;12.60;95.90;;;;;;5004842;28;20212;-68
2021/04/02 05:10:00;;;;;;;2.10;1.90;;;12.60;96.20;;;;;;5012439;28;20220;-69
2021/04/02 05:18:30;;;;;;;2.35;1.83;;;12.50;97.00;;;;;;5087101;27;20626;-75
2021/04/02 05:20:56;;;;;;;3.65;2.70;;;12.40;96.90;;;;;;5087698;28;20718;-75
2021/04/02 05:23:24;;;;;;;2.50;2.30;;;12.40;97.30;;;;;;5090370;28;20239;-75
2021/04/02 05:25:50;;;;;;;1.88;1.77;;;12.40;97.40;;;;;;5091308;28;20189;-75
2021/04/02 05:28:17;;;;;;;2.55;2.35;;;12.40;97.40;;;;;;5069636;28;20221;-75
2021/04/02 05:30:44;;;;;;;3.05;2.13;;;12.50;97.40;;;;;;5068032;28;20229;-76
2021/04/02 05:33:11;;;;;;;2.58;2.13;;;12.60;97.20;;;;;;5068597;28;20222;-75
2021/04/02 05:35:37;;;;;;;3.20;1.67;;;12.80;97.00;;;;;;5067232;28;20213;-75
2021/04/02 05:38:04;;;;;;;2.35;1.83;;;13.00;96.90;;;;;;5066797;28;22547;-75
2021/04/02 05:40:32;;;;;;;2.22;1.80;;;13.20;96.60;;;;;;5067327;28;20679;-76
2021/04/02 05:43:06;;;;;;;4.80;1.80;;;13.50;96.50;;;;;;5067837;28;20728;-76
2021/04/02 05:45:37;;;;;;;1.65;1.40;;;13.60;96.30;;;;;;5069689;28;20264;-76
2021/04/02 05:48:05;;;;;;;1.90;1.80;;;13.90;96.30;;;;;;5063343;28;20305;-76
2021/04/02 05:50:33;;;;;;;2.00;1.75;;;14.10;96.20;;;;;;5067612;28;20279;-77
2021/04/02 05:53:04;;;;;;;2.10;1.77;;;14.30;96.00;;;;;;5069098;28;20203;-76
2021/04/02 05:55:34;;;;;;;1.63;1.52;;;14.50;95.80;;;;;;5069280;28;20746;-75
2021/04/02 05:58:03;;;;;;;1.80;1.70;;;14.80;95.50;;;;;;5068278;28;20249;-76
2021/04/02 06:00:31;;;;;;;2.28;2.08;;;15.00;95.40;;;;;;5069321;28;20205;-76
2021/04/02 06:02:58;;;;;;;4.43;1.85;;;15.20;95.10;;;;;;5065430;28;20664;-76
2021/04/02 06:05:25;;;;;;;2.10;1.90;;;15.50;95.10;;;;;;5066310;28;20198;-75
2021/04/02 06:07:53;;;;;;;2.63;2.10;;;15.70;94.90;;;;;;5062602;28;20225;-75
2021/04/02 06:10:20;;;;;;;2.00;1.80;;;15.90;94.60;;;;;;5063766;28;20228;-76
2021/04/02 06:12:48;;;;;;;2.15;1.95;;;16.20;94.40;;;;;;5069461;28;20247;-75
2021/04/02 06:15:15;;;;;;;3.38;1.90;;;16.30;94.20;;;;;;5064800;28;20248;-76
2021/04/02 06:17:58;;;;;;;3.75;2.05;;;16.50;93.90;;;;;;5066906;28;20460;-74
2021/04/02 06:20:26;;;;;;;3.88;2.20;;;16.70;93.80;;;;;;5067872;28;20268;-76
2021/04/02 06:23:03;;;;;;;5.18;2.53;;;16.70;93.90;;;;;;5064334;28;20484;-75
2021/04/02 06:25:30;;;;;;;2.45;2.15;;;16.80;94.40;;;;;;5067079;28;20218;-73
2021/04/02 06:27:57;;;;;;;4.22;2.15;;;16.90;95.10;;;;;;5067409;28;20258;-75
2021/04/02 06:30:26;;;;;;;3.75;2.17;;;17.10;94.80;;;;;;5066097;28;20222;-76
2021/04/02 06:32:53;;;;;;;5.07;2.25;;;17.20;94.30;;;;;;5065539;28;20194;-76
2021/04/02 06:35:23;;;;;;;2.90;1.92;;;17.30;94.30;;;;;;5068492;28;20600;-76
2021/04/02 06:37:54;;;;;;;3.05;1.70;;;17.50;94.20;;;;;;5062575;28;20214;-77
2021/04/02 06:40:22;;;;;;;3.58;2.17;;;17.70;93.60;;;;;;5063608;28;20267;-76
2021/04/02 06:42:49;;;;;;;2.28;2.00;;;17.90;93.20;;;;;;5066796;28;20202;-76
2021/04/02 06:45:19;;;;;;;2.60;2.15;;;18.00;92.90;;;;;;5061500;28;20219;-75
2021/04/02 06:47:46;;;;;;;3.85;2.45;;;18.30;93.10;;;;;;5065091;28;20598;-75
2021/04/02 06:50:21;;;;;;;3.70;2.38;;;18.60;92.90;;;;;;5063125;28;20226;-75
2021/04/02 06:52:50;;;;;;;5.15;2.47;;;18.40;92.80;;;;;;5064714;28;20190;-76
2021/04/02 06:55:17;;;;;;;2.38;1.98;;;18.40;93.00;;;;;;5064511;28;20225;-76
2021/04/02 06:57:48;;;;;;;2.33;2.13;;;18.40;93.00;;;;;;5062512;28;20222;-75
2021/04/02 07:00:20;;;;;;;3.80;2.50;;;18.50;93.10;;;;;;5064851;28;20253;-76
2021/04/02 07:02:48;;;;;;;3.45;2.63;;;18.60;93.10;;;;;;5066772;28;20205;-75
2021/04/02 07:05:18;;;;;;;2.53;2.28;;;18.70;92.70;;;;;;5058630;28;20246;-76
2021/04/02 07:07:47;;;;;;;6.53;2.42;;;18.70;92.90;;;;;;5066956;28;20222;-76
2021/04/02 07:10:15;;;;;;;5.68;2.45;;;18.70;92.90;;;;;;5059344;28;20226;-76
2021/04/02 07:12:46;;;;;;;3.67;2.25;;;18.80;92.80;;;;;;5067711;28;20205;-76
2021/04/02 07:15:14;;;;;;;3.75;2.20;;;18.90;92.60;;;;;;5063034;28;20217;-76
2021/04/02 07:17:42;;;;;;;5.15;2.33;;;19.00;92.30;;;;;;5065707;28;20222;-76
2021/04/02 07:20:10;;;;;;;3.22;2.20;;;19.00;92.40;;;;;;5057728;28;20245;-75
2021/04/02 07:22:38;;;;;;;7.78;2.25;;;19.10;92.20;;;;;;5065854;28;20209;-75
2021/04/02 07:25:06;;;;;;;5.40;2.22;;;19.10;92.10;;;;;;5061120;28;20227;-76
2021/04/02 07:27:34;;;;;;;7.70;2.42;;;19.30;92.10;;;;;;5066452;28;20241;-76
2021/04/02 07:30:03;;;;;;;4.40;2.90;;;19.60;91.90;;;;;;5067194;28;20229;-76
2021/04/02 07:32:31;;;;;;;6.18;2.50;;;19.70;91.90;;;;;;5066983;28;20285;-76
2021/04/02 07:34:59;;;;;;;5.43;2.10;;;19.90;91.70;;;;;;5068769;28;20225;-74
2021/04/02 07:37:26;;;;;;;6.45;2.25;;;19.80;91.10;;;;;;5066856;28;20684;-73
2021/04/02 07:39:55;;;;;;;4.32;2.58;;;19.90;91.20;;;;;;5065697;28;20206;-78
2021/04/02 07:42:21;;;;;;;4.38;2.13;;;20.00;91.10;;;;;;5065525;28;20201;-75
2021/04/02 07:44:55;;;;;;;4.85;2.10;;;20.10;90.80;;;;;;5066996;28;20218;-76
2021/04/02 07:47:23;;;;;;;2.72;2.28;;;20.10;90.90;;;;;;5065973;28;20222;-76
2021/04/02 07:49:58;;;;;;;5.47;2.67;;;20.00;90.50;;;;;;5067329;28;20286;-76
2021/04/02 07:52:33;;;;;;;3.75;2.60;;;19.90;91.00;;;;;;5067832;28;20193;-74
2021/04/02 07:55:09;;;;;;;3.55;2.10;;;19.50;90.90;;;;;;5067926;28;20439;-76
2021/04/02 07:57:54;;;;;;;4.47;2.58;;;19.50;91.20;;;;;;5066427;28;20210;-75
2021/04/02 08:00:25;;;;;;;10.50;2.60;;;19.30;91.40;;;;;;5063910;28;20217;-74
2021/04/02 08:03:08;;;;;;;5.65;2.70;;;19.30;91.40;;;;;;5063179;28;20211;-75
2021/04/02 08:05:35;;;;;;;4.95;2.60;;;19.30;91.90;;;;;;5065426;28;20218;-75
2021/04/02 08:08:06;;;;;;;3.58;2.35;;;19.40;91.90;;;;;;5066080;28;20279;-75
2021/04/02 08:10:34;;;;;;;6.28;2.17;;;19.30;91.70;;;;;;5065021;28;20726;-74
2021/04/02 08:13:01;;;;;;;5.32;2.30;;;19.40;92.00;;;;;;5069117;28;20754;-75
2021/04/02 08:15:27;;;;;;;8.02;2.70;;;19.50;92.00;;;;;;5068163;28;20218;-74
2021/04/02 08:17:55;;;;;;;5.80;2.50;;;19.60;92.00;;;;;;5069697;28;20338;-75
2021/04/02 08:20:23;;;;;;;4.68;2.25;;;19.70;92.00;;;;;;5071948;28;20286;-75
2021/04/02 08:22:51;;;;;;;6.03;2.50;;;19.90;91.90;;;;;;5070196;28;20202;-73
2021/04/02 08:25:22;;;;;;;5.15;2.70;;;20.00;91.30;;;;;;5069403;28;20244;-76
2021/04/02 08:27:48;;;;;;;6.00;2.55;;;20.00;91.20;;;;;;5070720;28;20210;-75
2021/04/02 08:30:17;;;;;;;4.72;2.30;;;20.00;91.00;;;;;;5070948;28;20793;-74
2021/04/02 08:32:45;;;;;;;9.05;2.58;;;20.00;90.50;;;;;;5070205;28;20261;-74
2021/04/02 08:35:14;;;;;;;5.75;2.20;;;20.10;90.30;;;;;;5069846;28;20218;-75
2021/04/02 08:37:56;;;;;;;4.90;2.10;;;20.20;90.20;;;;;;5068994;28;20214;-75
2021/04/02 08:40:24;;;;;;;4.78;2.35;;;20.20;90.00;;;;;;5067258;28;20220;-74
2021/04/02 08:42:51;;;;;;;4.18;2.28;;;20.30;90.10;;;;;;5069985;28;20197;-75
2021/04/02 08:45:20;;;;;;;5.03;2.63;;;20.50;90.20;;;;;;5068994;28;20309;-74
2021/04/02 08:47:48;;;;;;;4.90;2.20;;;20.90;90.20;;;;;;5069006;28;20750;-76
2021/04/02 08:50:14;;;;;;;3.90;2.42;;;21.40;90.40;;;;;;5067887;28;20228;-76
2021/04/02 08:52:41;;;;;;;4.65;2.80;;;21.80;89.20;;;;;;5068588;28;20195;-75
2021/04/02 08:55:10;;;;;;;4.57;2.70;;;21.90;88.50;;;;;;5069876;28;20268;-76
2021/04/02 08:57:38;;;;;;;4.25;2.45;;;21.70;88.80;;;;;;5072233;28;20275;-75
2021/04/02 09:00:08;;;;;;;3.65;2.50;;;21.50;88.40;;;;;;5076494;28;20210;-76
2021/04/02 09:02:36;;;;;;;6.18;2.58;;;21.40;88.40;;;;;;5070450;28;20198;-76
2021/04/02 09:05:06;;;;;;;3.85;2.08;;;21.30;87.60;;;;;;5065911;28;20221;-76
2021/04/02 09:07:36;;;;;;;3.83;2.15;;;21.40;87.80;;;;;;5068065;28;20222;-76
2021/04/02 09:10:11;;;;;;;6.32;2.50;;;21.50;87.30;;;;;;5068203;28;20210;-75
2021/04/02 09:12:38;;;;;;;7.53;2.55;;;21.70;87.80;;;;;;5069711;28;20213;-75
2021/04/02 09:15:06;;;;;;;6.60;2.50;;;21.70;87.20;;;;;;5069760;28;20226;-76
2021/04/02 09:17:33;;;;;;;5.78;2.78;;;21.80;87.30;;;;;;5067930;28;20723;-76
2021/04/02 09:20:01;;;;;;;4.63;2.42;;;22.00;87.40;;;;;;5065696;28;20616;-76
2021/04/02 09:22:29;;;;;;;7.65;2.00;;;22.40;87.30;;;;;;5069345;28;20331;-76
2021/04/02 09:24:55;;;;;;;7.40;2.83;;;22.60;85.20;;;;;;5068252;28;20226;-76
2021/04/02 09:27:23;;;;;;;4.68;2.33;;;22.80;85.40;;;;;;5068400;28;20217;-76
2021/04/02 09:29:55;;;;;;;7.20;2.45;;;22.80;85.80;;;;;;5068834;28;20218;-76
2021/04/02 09:32:23;;;;;;;4.45;2.50;;;23.20;84.80;;;;;;5069630;28;20200;-76
2021/04/02 09:34:50;;;;;;;5.57;2.50;;;23.10;84.20;;;;;;5069474;28;20214;-75
2021/04/02 09:37:16;;;;;;;5.25;2.35;;;23.00;84.40;;;;;;5069598;28;20650;-76
2021/04/02 09:39:44;;;;;;;7.28;2.50;;;22.90;83.90;;;;;;5068462;28;20277;-76
2021/04/02 09:42:15;;;;;;;6.30;2.58;;;22.70;83.70;;;;;;5070684;28;20202;-76
2021/04/02 09:44:47;;;;;;;4.45;2.30;;;22.50;84.10;;;;;;5068119;28;20238;-76
2021/04/02 09:47:15;;;;;;;7.00;2.53;;;22.60;84.70;;;;;;5068227;28;20214;-76
2021/04/02 09:49:44;;;;;;;5.82;2.20;;;22.60;84.30;;;;;;5068697;28;20268;-75
2021/04/02 09:52:11;;;;;;;7.10;2.63;;;22.70;83.90;;;;;;5069597;28;20633;-76
2021/04/02 09:54:38;;;;;;;4.18;2.33;;;22.70;84.00;;;;;;5068277;28;20255;-75
2021/04/02 09:57:07;;;;;;;9.25;2.78;;;22.70;84.50;;;;;;5069638;28;20276;-76
2021/04/02 09:59:34;;;;;;;6.10;2.40;;;22.60;83.90;;;;;;5068229;28;20469;-76
2021/04/02 10:02:01;;;;;;;5.13;2.47;;;22.70;84.20;;;;;;5069936;28;20198;-76
2021/04/02 10:04:29;;;;;;;5.10;2.50;;;22.80;82.40;;;;;;5067885;28;20320;-76
2021/04/02 10:06:56;;;;;;;3.63;2.20;;;23.00;82.90;;;;;;5069253;28;20218;-76
2021/04/02 10:09:22;;;;;;;7.38;2.58;;;23.10;82.40;;;;;;5068167;28;20218;-76
2021/04/02 10:11:50;;;;;;;4.93;2.47;;;23.40;82.60;;;;;;5068345;28;20210;-76
2021/04/02 10:14:19;;;;;;;3.15;2.22;;;23.70;81.50;;;;;;5067333;28;20591;-76
2021/04/02 10:16:46;;;;;;;5.65;2.33;;;23.80;81.30;;;;;;5067890;28;20775;-76
2021/04/02 10:19:13;;;;;;;6.07;2.80;;;24.10;82.00;;;;;;5064837;28;20302;-76
2021/04/02 10:21:40;;;;;;;5.40;2.50;;;24.30;80.60;;;;;;5069374;28;20652;-76
2021/04/02 10:24:08;;;;;;;8.90;3.00;;;23.90;80.10;;;;;;5066809;28;21244;-76
2021/04/02 10:26:35;;;;;;;4.75;2.60;;;23.80;80.20;;;;;;5066656;28;20217;-76
2021/04/02 10:29:02;;;;;;;5.15;2.50;;;23.70;80.30;;;;;;5065400;28;20194;-76
2021/04/02 10:31:28;;;;;;;5.00;2.15;;;23.80;80.80;;;;;;5067985;28;20211;-75
2021/04/02 10:33:55;;;;;;;4.78;2.70;;;24.00;80.00;;;;;;5068701;28;20202;-76
2021/04/02 10:36:22;;;;;;;3.78;1.92;;;24.00;79.80;;;;;;5068487;28;20214;-76
2021/04/02 10:38:50;;;;;;;4.63;2.30;;;24.20;80.50;;;;;;5067031;28;20190;-76
2021/04/02 10:41:17;;;;;;;7.70;2.30;;;24.50;79.70;;;;;;5068970;28;20218;-76
2021/04/02 10:43:44;;;;;;;4.50;2.55;;;24.70;78.90;;;;;;5068305;28;20205;-76
2021/04/02 10:46:12;;;;;;;5.15;2.30;;;24.70;77.90;;;;;;5068547;28;20232;-76
2021/04/02 10:48:39;;;;;;;7.10;2.42;;;24.70;77.90;;;;;;5068848;28;20277;-76
2021/04/02 10:51:06;;;;;;;5.80;2.33;;;24.50;77.10;;;;;;5068082;28;20241;-76
2021/04/02 10:53:33;;;;;;;6.22;3.03;;;24.50;77.40;;;;;;5065372;28;20653;-76
2021/04/02 10:56:03;;;;;;;5.78;2.53;;;24.80;78.90;;;;;;5066674;28;20692;-76
2021/04/02 10:58:31;;;;;;;6.43;2.63;;;25.00;77.50;;;;;;5068593;28;20198;-76
2021/04/02 11:00:58;;;;;;;5.70;2.38;;;25.10;79.00;;;;;;5068898;28;20211;-76
2021/04/02 11:03:25;;;;;;;4.65;2.45;;;25.40;77.30;;;;;;5067712;28;20793;-76
2021/04/02 11:05:51;;;;;;;5.20;2.33;;;25.30;76.10;;;;;;5067340;28;20213;-77
2021/04/02 11:08:18;;;;;;;8.13;2.65;;;25.30;76.60;;;;;;5063670;28;20198;-76
2021/04/02 11:10:45;;;;;;;6.85;2.58;;;25.40;76.20;;;;;;5065864;28;20603;-76
2021/04/02 11:13:13;;;;;;;8.32;3.10;;;25.40;76.10;;;;;;5068269;28;20198;-76
2021/04/02 11:15:40;;;;;;;6.13;2.40;;;25.50;76.10;;;;;;5066827;28;20219;-76
2021/04/02 11:18:07;;;;;;;6.80;2.70;;;25.70;75.80;;;;;;5069636;28;20213;-75
2021/04/02 11:20:33;;;;;;;4.80;2.67;;;25.70;76.10;;;;;;5065950;28;20223;-75
2021/04/02 11:23:00;;;;;;;5.53;2.42;;;25.90;76.30;;;;;;5066954;28;20194;-75
2021/04/02 11:25:27;;;;;;;6.55;2.83;;;26.20;75.40;;;;;;5067853;28;20574;-75
2021/04/02 11:27:54;;;;;;;6.75;2.25;;;26.40;75.10;;;;;;5068093;28;20240;-75
2021/04/02 11:30:23;;;;;;;6.10;2.95;;;26.40;75.00;;;;;;5067499;28;20604;-75
2021/04/02 11:32:50;;;;;;;7.65;3.03;;;26.40;74.60;;;;;;5068636;28;20194;-76
2021/04/02 11:35:17;;;;;;;4.45;2.35;;;26.50;74.50;;;;;;5067496;28;20213;-75
2021/04/02 11:37:44;;;;;;;7.03;2.72;;;26.40;74.60;;;;;;5068190;28;20549;-75
2021/04/02 11:40:13;;;;;;;6.88;2.80;;;26.60;74.40;;;;;;5067064;28;20707;-75
2021/04/02 11:42:40;;;;;;;9.40;2.75;;;26.70;74.10;;;;;;5067641;28;20194;-75
2021/04/02 11:45:08;;;;;;;6.90;2.67;;;26.80;73.20;;;;;;5068086;28;20704;-76
2021/04/02 11:47:35;;;;;;;5.55;2.22;;;26.60;71.80;;;;;;5070822;28;20225;-75
2021/04/02 11:50:03;;;;;;;8.73;2.50;;;26.50;72.60;;;;;;5070317;28;20213;-75
2021/04/02 11:52:29;;;;;;;6.95;2.50;;;26.50;72.40;;;;;;5071515;28;20201;-76
2021/04/02 11:54:56;;;;;;;8.55;2.90;;;26.70;72.60;;;;;;5071088;28;20233;-76
2021/04/02 11:57:22;;;;;;;12.32;3.00;;;26.80;72.40;;;;;;5071310;28;20422;-75
2021/04/02 11:59:49;;;;;;;9.27;3.13;;;27.00;71.40;;;;;;5071761;28;20810;-75
2021/04/02 12:02:16;;;;;;;8.43;2.67;;;27.20;70.30;;;;;;5071663;28;20194;-75
2021/04/02 12:04:43;;;;;;;9.57;3.40;;;27.30;70.40;;;;;;5069368;28;20221;-76
2021/04/02 12:07:10;;;;;;;10.68;3.08;;;27.20;69.80;;;;;;5072009;28;20514;-75
2021/04/02 12:09:36;;;;;;;10.38;3.25;;;27.10;69.80;;;;;;5069425;28;20218;-75
2021/04/02 12:12:03;;;;;;;7.38;2.38;;;27.00;68.20;;;;;;5071964;28;20221;-75
2021/04/02 12:14:30;;;;;;;6.32;2.65;;;27.20;69.00;;;;;;5069859;28;20194;-75
2021/04/02 12:16:57;;;;;;;9.98;3.25;;;27.30;67.10;;;;;;5071173;28;20222;-76
2021/04/02 12:19:23;;;;;;;12.45;2.85;;;27.50;67.70;;;;;;5071334;28;20197;-76
2021/04/02 12:21:51;;;;;;;11.68;3.47;;;27.70;66.30;;;;;;5066293;28;20260;-76
2021/04/02 12:24:17;;;;;;;6.93;2.78;;;27.80;62.80;;;;;;5063266;28;20202;-75
2021/04/02 12:26:44;;;;;;;8.43;3.33;;;27.90;64.30;;;;;;5061991;28;20233;-75
2021/04/02 12:29:10;;;;;;;10.40;3.30;;;28.10;64.00;;;;;;5067392;28;20195;-76
2021/04/02 12:31:37;;;;;;;9.50;3.13;;;28.00;62.00;;;;;;5067359;28;20226;-75
2021/04/02 12:34:03;;;;;;;11.88;3.05;;;28.00;62.50;;;;;;5067298;28;20795;-75
2021/04/02 12:36:30;;;;;;;9.80;3.13;;;28.00;63.10;;;;;;5066226;28;20225;-74
2021/04/02 12:38:58;;;;;;;10.52;3.58;;;28.20;62.40;;;;;;5068910;28;20194;-75
2021/04/02 12:41:24;;;;;;;7.90;3.50;;;28.30;60.00;;;;;;5069042;28;20206;-75
2021/04/02 12:43:51;;;;;;;11.05;3.58;;;28.00;59.80;;;;;;5067896;28;20606;-76
2021/04/02 12:46:17;;;;;;;9.55;3.35;;;27.80;59.60;;;;;;5068528;28;20222;-75
2021/04/02 12:48:44;;;;;;;19.13;3.63;;;27.80;60.00;;;;;;5066427;28;20237;-74
2021/04/02 12:51:10;;;;;;;10.48;3.58;;;27.80;59.40;;;;;;5062616;28;20315;-74
2021/04/02 12:53:37;;;;;;;7.32;3.33;;;27.90;60.00;;;;;;5062377;28;20202;-74
2021/04/02 12:56:08;;;;;;;8.63;3.20;;;28.00;58.10;;;;;;5062189;28;20217;-75